Time;durP1;ratioP1;P1;durP2;ratioP2;P2;SDS_P1;SDS_P2;PMS_P1;PMS_P2;Temp;Humidity;BMP_temperature;BMP_pressure;BME280_temperature;BME280_humidity;BME280_pressure;Samples;Min_cycle;Max_cycle;Signal;HPM_P1;HPM_P2
2022/05/19 00:01:16;;;;;;;13.38;12.00;;;15.00;99.90;;;;;;5118478;28;20033;-87
2022/05/19 00:03:41;;;;;;;15.88;11.88;;;15.00;99.90;;;;;;5119944;28;20028;-84
2022/05/19 00:06:09;;;;;;;15.48;13.43;;;15.00;99.90;;;;;;5115010;28;20056;-82
2022/05/19 00:08:34;;;;;;;13.43;11.93;;;15.10;99.90;;;;;;5076291;28;20048;-82
2022/05/19 00:11:02;;;;;;;17.85;13.35;;;15.10;99.90;;;;;;5093249;28;20040;-82
2022/05/19 00:13:28;;;;;;;16.60;14.40;;;15.10;99.90;;;;;;5092521;28;20058;-83
2022/05/19 00:15:54;;;;;;;16.10;14.00;;;15.10;99.90;;;;;;5092905;28;20043;-81
2022/05/19 00:18:19;;;;;;;17.10;13.85;;;15.10;99.90;;;;;;5093964;28;20472;-83
2022/05/19 00:20:45;;;;;;;17.27;14.13;;;15.10;99.90;;;;;;5093007;28;20039;-82
2022/05/19 00:23:11;;;;;;;14.25;12.63;;;15.20;99.90;;;;;;5092795;28;20430;-82
2022/05/19 00:25:36;;;;;;;17.38;14.00;;;15.20;99.90;;;;;;5092237;28;20577;-82
2022/05/19 00:28:02;;;;;;;14.63;13.10;;;15.20;99.90;;;;;;5093675;28;20036;-83
2022/05/19 00:30:28;;;;;;;15.25;12.98;;;15.20;99.90;;;;;;5092331;28;20077;-80
2022/05/19 00:32:53;;;;;;;16.20;12.00;;;15.10;99.90;;;;;;5094038;28;20463;-80
2022/05/19 00:35:19;;;;;;;16.35;12.98;;;15.10;99.90;;;;;;5093466;28;20484;-83
2022/05/19 00:37:45;;;;;;;16.40;12.90;;;15.00;99.90;;;;;;5092862;28;20126;-83
2022/05/19 00:40:10;;;;;;;14.25;12.70;;;15.00;99.90;;;;;;5075737;28;20040;-83
2022/05/19 00:42:45;;;;;;;17.98;13.95;;;15.00;99.90;;;;;;5093295;28;20036;-80
2022/05/19 00:45:16;;;;;;;18.38;14.23;;;15.00;99.90;;;;;;5092169;28;20043;-80
2022/05/19 00:48:19;;;;;;;16.63;13.48;;;14.90;99.90;;;;;;5093392;28;20083;-81
2022/05/19 00:50:55;;;;;;;16.33;14.18;;;14.90;99.90;;;;;;5087650;28;20066;-81
2022/05/19 00:53:45;;;;;;;17.65;14.70;;;14.90;99.90;;;;;;5091832;28;20048;-82
2022/05/19 00:56:13;;;;;;;20.60;16.42;;;14.90;99.90;;;;;;5093724;28;20395;-82
2022/05/19 00:58:45;;;;;;;20.48;17.20;;;14.90;99.90;;;;;;5091618;28;20044;-82
2022/05/19 01:01:11;;;;;;;19.83;17.10;;;14.90;99.90;;;;;;5075814;28;20119;-82
2022/05/19 01:03:41;;;;;;;25.13;18.77;;;14.90;99.90;;;;;;5092752;28;20124;-81
2022/05/19 01:06:10;;;;;;;21.08;17.95;;;14.90;99.90;;;;;;5075180;28;20499;-81
2022/05/19 01:08:45;;;;;;;20.73;17.98;;;14.90;99.90;;;;;;5075304;28;20079;-81
2022/05/19 01:11:10;;;;;;;19.90;15.95;;;14.90;99.90;;;;;;5091630;28;20199;-81
2022/05/19 01:13:37;;;;;;;20.88;18.15;;;14.90;99.90;;;;;;5074168;28;20044;-81
2022/05/19 01:16:04;;;;;;;20.02;17.83;;;14.90;99.90;;;;;;5075234;28;20086;-81
2022/05/19 01:18:30;;;;;;;21.65;17.90;;;14.80;99.90;;;;;;5073675;28;20032;-81
2022/05/19 01:20:55;;;;;;;21.58;18.25;;;14.90;99.90;;;;;;5091932;28;20410;-81
2022/05/19 01:23:56;;;;;;;24.48;18.55;;;14.90;99.90;;;;;;5091643;28;20087;-81
2022/05/19 01:26:27;;;;;;;21.60;18.80;;;14.90;99.90;;;;;;5091969;28;20047;-81
2022/05/19 01:28:54;;;;;;;22.23;19.80;;;14.90;99.90;;;;;;5091580;28;20371;-81
2022/05/19 01:31:26;;;;;;;25.90;19.88;;;14.90;99.90;;;;;;5075059;28;20428;-81
2022/05/19 01:33:52;;;;;;;22.17;19.02;;;14.90;99.90;;;;;;5092802;28;20087;-81
2022/05/19 01:36:17;;;;;;;23.75;19.42;;;14.80;99.90;;;;;;5074988;28;20110;-81
2022/05/19 01:38:43;;;;;;;22.23;18.58;;;14.90;99.90;;;;;;5091572;28;20184;-81
2022/05/19 01:41:33;;;;;;;22.58;18.80;;;14.90;99.90;;;;;;5092550;28;20488;-82
2022/05/19 01:44:08;;;;;;;;;;;14.90;99.90;;;;;;5077091;28;20044;-81
2022/05/19 01:46:35;;;;;;;24.02;18.30;;;14.80;99.90;;;;;;5092159;28;19969;-81
2022/05/19 01:49:04;;;;;;;24.83;19.67;;;14.80;99.90;;;;;;5091388;28;20048;-81
2022/05/19 01:51:34;;;;;;;24.88;20.17;;;14.80;99.90;;;;;;5092038;28;20040;-82
2022/05/19 01:54:36;;;;;;;26.15;22.50;;;14.80;99.90;;;;;;5091229;28;20047;-81
2022/05/19 01:57:18;;;;;;;25.63;22.88;;;14.80;99.90;;;;;;5092594;28;20540;-81
2022/05/19 01:59:49;;;;;;;28.92;23.13;;;14.80;99.90;;;;;;5075855;28;20479;-81
2022/05/19 02:02:48;;;;;;;27.48;24.67;;;14.80;99.90;;;;;;5074935;28;20036;-81
2022/05/19 02:05:23;;;;;;;29.25;26.10;;;14.90;99.90;;;;;;5093160;28;20039;-81
2022/05/19 02:07:50;;;;;;;30.52;27.27;;;14.90;99.90;;;;;;5094579;28;20498;-81
2022/05/19 02:10:19;;;;;;;32.85;28.55;;;14.90;99.90;;;;;;5091331;28;20040;-81
2022/05/19 02:12:45;;;;;;;41.03;29.90;;;14.90;99.90;;;;;;5088569;28;20044;-81
2022/05/19 02:15:13;;;;;;;32.22;28.50;;;14.90;99.90;;;;;;5115463;28;20035;-82
2022/05/19 02:17:39;;;;;;;32.83;29.35;;;14.90;99.90;;;;;;5097985;28;20061;-83
2022/05/19 02:20:08;;;;;;;36.25;29.35;;;15.00;99.90;;;;;;5096467;28;20036;-82
2022/05/19 02:22:38;;;;;;;37.53;30.25;;;15.00;99.90;;;;;;5115845;28;20035;-88
2022/05/19 02:25:27;;;;;;;38.60;30.88;;;15.00;99.90;;;;;;5100604;28;20037;-85
2022/05/19 02:28:04;;;;;;;34.53;30.27;;;15.00;99.90;;;;;;5116896;28;20048;-82
2022/05/19 02:30:34;;;;;;;35.22;29.15;;;15.00;99.90;;;;;;5102130;28;20088;-81
2022/05/19 02:33:00;;;;;;;33.95;28.77;;;15.00;99.90;;;;;;5121296;28;20028;-82
2022/05/19 02:35:26;;;;;;;35.45;30.13;;;15.10;99.90;;;;;;5073512;28;20032;-81
2022/05/19 02:37:52;;;;;;;36.20;30.85;;;15.00;99.90;;;;;;5096176;28;20044;-81
2022/05/19 02:40:19;;;;;;;37.85;31.20;;;15.10;99.90;;;;;;5095080;28;20390;-80
2022/05/19 02:42:45;;;;;;;39.05;31.23;;;15.10;99.90;;;;;;5095203;28;20397;-81
2022/05/19 02:45:10;;;;;;;39.15;30.85;;;15.10;99.90;;;;;;5095950;28;20127;-80
2022/05/19 02:47:36;;;;;;;35.42;31.02;;;15.10;99.90;;;;;;5094247;28;20040;-81
2022/05/19 02:50:02;;;;;;;43.58;34.03;;;15.10;99.90;;;;;;5095497;28;20037;-80
2022/05/19 02:52:28;;;;;;;39.45;31.45;;;15.10;99.90;;;;;;5094835;28;20518;-81
2022/05/19 02:54:53;;;;;;;38.53;33.33;;;15.10;99.90;;;;;;5095632;28;20111;-80
2022/05/19 02:57:19;;;;;;;43.85;34.03;;;15.10;99.90;;;;;;5094404;28;20387;-80
2022/05/19 02:59:45;;;;;;;41.88;33.53;;;15.10;99.90;;;;;;5094150;28;20044;-81
2022/05/19 03:02:10;;;;;;;36.83;32.92;;;15.10;99.90;;;;;;5094496;28;20050;-81
2022/05/19 03:04:36;;;;;;;38.90;33.88;;;15.10;99.90;;;;;;5094008;28;20032;-81
2022/05/19 03:07:02;;;;;;;41.20;35.08;;;15.10;99.90;;;;;;5095460;28;20430;-81
2022/05/19 03:09:28;;;;;;;41.10;34.70;;;15.20;99.90;;;;;;5095508;28;20040;-81
2022/05/19 03:11:54;;;;;;;41.10;34.67;;;15.20;99.90;;;;;;5076974;28;20104;-81
2022/05/19 03:14:19;;;;;;;40.67;36.28;;;15.20;99.90;;;;;;5094167;28;20032;-81
2022/05/19 03:16:45;;;;;;;43.40;36.05;;;15.20;99.90;;;;;;5094778;28;20044;-81
2022/05/19 03:19:12;;;;;;;42.15;37.08;;;15.20;99.90;;;;;;5095347;28;20090;-82
2022/05/19 03:21:38;;;;;;;47.20;37.65;;;15.20;99.90;;;;;;5094913;28;20357;-82
2022/05/19 03:24:04;;;;;;;46.00;38.03;;;15.20;99.90;;;;;;5095042;28;20113;-81
2022/05/19 03:26:29;;;;;;;45.97;38.17;;;15.20;99.90;;;;;;5093766;28;20048;-82
2022/05/19 03:28:55;;;;;;;47.55;38.97;;;15.20;99.90;;;;;;5093472;28;20383;-81
2022/05/19 03:31:21;;;;;;;47.22;39.80;;;15.30;99.90;;;;;;5094747;28;20044;-81
2022/05/19 03:33:46;;;;;;;49.05;40.63;;;15.30;99.90;;;;;;5093282;28;20055;-81
2022/05/19 03:36:12;;;;;;;48.05;41.30;;;15.30;99.90;;;;;;5093885;28;20044;-81
2022/05/19 03:38:38;;;;;;;47.70;40.70;;;15.30;99.90;;;;;;5094911;28;20079;-81
2022/05/19 03:41:04;;;;;;;50.22;42.28;;;15.30;99.90;;;;;;5076270;28;20387;-81
2022/05/19 03:43:30;;;;;;;45.13;40.35;;;15.30;99.90;;;;;;5093159;28;20122;-81
2022/05/19 03:45:56;;;;;;;48.85;42.58;;;15.30;99.90;;;;;;5093080;28;20115;-80
2022/05/19 03:48:21;;;;;;;52.60;42.72;;;15.40;99.90;;;;;;5094331;28;20054;-82
2022/05/19 03:50:47;;;;;;;53.97;44.05;;;15.30;99.90;;;;;;5094205;28;20048;-81
2022/05/19 03:53:13;;;;;;;51.42;43.75;;;15.40;99.90;;;;;;5076577;28;20044;-81
2022/05/19 03:55:39;;;;;;;49.60;43.03;;;15.40;99.90;;;;;;5093274;28;20055;-81
2022/05/19 03:58:05;;;;;;;50.75;43.47;;;15.40;99.90;;;;;;5093216;28;20079;-81
2022/05/19 04:00:31;;;;;;;51.40;44.50;;;15.40;99.90;;;;;;5093169;28;20093;-81
2022/05/19 04:02:58;;;;;;;51.55;42.88;;;15.40;99.90;;;;;;5094032;28;20051;-81
2022/05/19 04:05:24;;;;;;;49.47;43.40;;;15.50;99.90;;;;;;5076161;28;20123;-81
2022/05/19 04:07:50;;;;;;;55.10;44.33;;;15.50;99.90;;;;;;5092899;28;20056;-81
2022/05/19 04:10:16;;;;;;;53.03;43.72;;;15.50;99.90;;;;;;5093242;28;20040;-82
2022/05/19 04:12:43;;;;;;;51.75;44.72;;;15.50;99.90;;;;;;5094545;28;20044;-81
2022/05/19 04:15:09;;;;;;;50.35;44.25;;;15.60;99.90;;;;;;5092924;28;20387;-81
2022/05/19 04:17:35;;;;;;;50.92;43.80;;;15.60;99.90;;;;;;5094008;28;20476;-81
2022/05/19 04:20:05;;;;;;;53.50;45.75;;;15.60;99.90;;;;;;5092792;28;20127;-83
2022/05/19 04:22:31;;;;;;;57.22;45.08;;;15.60;99.90;;;;;;5093022;28;20047;-82
2022/05/19 04:25:00;;;;;;;58.83;45.55;;;15.60;99.90;;;;;;5093878;28;20040;-81
2022/05/19 04:27:27;;;;;;;50.28;44.50;;;15.60;99.90;;;;;;5076531;28;20348;-80
2022/05/19 04:29:53;;;;;;;49.67;44.38;;;15.70;99.90;;;;;;5101806;28;20046;-84
2022/05/19 04:32:19;;;;;;;50.25;44.85;;;15.70;99.90;;;;;;5116798;28;20040;-80
2022/05/19 04:34:45;;;;;;;50.72;45.00;;;15.80;99.90;;;;;;5115841;28;20066;-81
2022/05/19 04:37:11;;;;;;;50.55;45.05;;;15.80;99.90;;;;;;5113075;28;20061;-81
2022/05/19 04:39:36;;;;;;;49.45;44.15;;;15.90;99.90;;;;;;5114953;28;20086;-85
2022/05/19 04:42:09;;;;;;;52.40;45.47;;;15.90;99.90;;;;;;5084297;28;20039;-84
2022/05/19 04:44:35;;;;;;;51.47;44.10;;;16.10;99.90;;;;;;5101624;28;20044;-80
2022/05/19 04:47:00;;;;;;;49.53;44.33;;;16.10;99.90;;;;;;5118226;28;20036;-80
2022/05/19 04:49:26;;;;;;;52.47;43.63;;;16.20;99.90;;;;;;5112483;28;20050;-80
2022/05/19 04:51:52;;;;;;;50.70;44.05;;;16.30;99.90;;;;;;5094597;28;20032;-78
2022/05/19 04:54:17;;;;;;;51.63;43.58;;;16.30;99.90;;;;;;5093118;28;20052;-80
2022/05/19 04:56:43;;;;;;;48.67;42.83;;;16.40;99.90;;;;;;5093434;28;20075;-80
2022/05/19 04:59:15;;;;;;;50.50;44.28;;;16.50;99.90;;;;;;5094611;28;20040;-80
2022/05/19 05:01:46;;;;;;;49.60;42.55;;;16.40;99.90;;;;;;5093924;28;20044;-80
2022/05/19 05:04:12;;;;;;;50.38;44.85;;;16.50;99.90;;;;;;5092583;28;20046;-81
2022/05/19 05:06:37;;;;;;;50.30;42.97;;;16.50;99.90;;;;;;5042267;28;20390;-80
2022/05/19 05:09:03;;;;;;;48.45;42.85;;;16.50;99.90;;;;;;5075307;28;20384;-81
2022/05/19 05:11:29;;;;;;;49.28;42.05;;;16.50;99.90;;;;;;5093115;28;20036;-81
2022/05/19 05:13:55;;;;;;;49.03;42.15;;;16.60;99.90;;;;;;5092335;28;20051;-81
2022/05/19 05:16:20;;;;;;;46.40;38.83;;;16.60;99.90;;;;;;5092799;28;20040;-80
2022/05/19 05:18:46;;;;;;;44.50;38.88;;;16.70;99.90;;;;;;5093392;28;20081;-80
2022/05/19 05:21:13;;;;;;;43.08;38.58;;;16.80;99.90;;;;;;5092985;28;20086;-80
2022/05/19 05:23:39;;;;;;;42.25;37.65;;;16.90;99.90;;;;;;5093644;28;20079;-80
2022/05/19 05:26:06;;;;;;;42.13;35.83;;;16.90;99.90;;;;;;5075416;28;20086;-81
2022/05/19 05:28:32;;;;;;;43.33;35.88;;;17.00;99.90;;;;;;5092030;28;20428;-80
2022/05/19 05:30:58;;;;;;;39.92;35.17;;;17.10;99.90;;;;;;5075201;28;20048;-80
2022/05/19 05:33:24;;;;;;;42.10;35.65;;;17.30;99.90;;;;;;5093285;28;20127;-79
2022/05/19 05:35:49;;;;;;;38.50;32.75;;;17.40;99.90;;;;;;5075797;28;20048;-80
2022/05/19 05:38:15;;;;;;;35.20;31.35;;;17.50;99.90;;;;;;5092320;28;20048;-80
2022/05/19 05:40:41;;;;;;;38.25;31.20;;;17.60;99.90;;;;;;5093302;28;20036;-81
2022/05/19 05:43:16;;;;;;;32.40;28.45;;;17.70;99.90;;;;;;5092672;28;20127;-81
2022/05/19 05:45:42;;;;;;;30.48;25.83;;;17.80;99.90;;;;;;5092273;28;20038;-80
2022/05/19 05:48:08;;;;;;;31.27;23.50;;;17.80;99.90;;;;;;5092060;28;20043;-80
2022/05/19 05:50:34;;;;;;;24.42;21.80;;;17.90;99.90;;;;;;5093525;28;20405;-81
2022/05/19 05:52:59;;;;;;;23.17;19.83;;;18.00;99.90;;;;;;5093060;28;20127;-84
2022/05/19 05:55:25;;;;;;;23.45;19.40;;;18.10;99.90;;;;;;5092581;28;20072;-80
2022/05/19 05:57:51;;;;;;;21.10;18.90;;;18.10;99.90;;;;;;5092741;28;20128;-80
2022/05/19 06:00:17;;;;;;;21.52;19.33;;;18.10;99.90;;;;;;5058698;28;20485;-81
2022/05/19 06:02:42;;;;;;;25.23;19.85;;;18.20;99.90;;;;;;5092691;28;20036;-80
2022/05/19 06:05:09;;;;;;;23.40;20.58;;;18.20;99.90;;;;;;5092868;28;20067;-81
2022/05/19 06:07:34;;;;;;;24.20;21.75;;;18.30;99.90;;;;;;5096995;28;20094;-81
2022/05/19 06:10:00;;;;;;;23.65;21.08;;;18.30;99.90;;;;;;5096578;28;20486;-81
2022/05/19 06:12:25;;;;;;;26.35;23.20;;;18.30;99.90;;;;;;5078938;28;20047;-81
2022/05/19 06:14:53;;;;;;;28.15;23.40;;;18.40;99.90;;;;;;5097820;28;20044;-81
2022/05/19 06:17:19;;;;;;;25.42;22.73;;;18.40;99.90;;;;;;5097012;28;20090;-83
2022/05/19 06:19:45;;;;;;;27.30;23.05;;;18.50;99.90;;;;;;5078922;28;20048;-82
2022/05/19 06:22:10;;;;;;;25.80;23.13;;;18.50;99.90;;;;;;5094293;28;20043;-79
2022/05/19 06:24:36;;;;;;;24.40;21.48;;;18.50;99.90;;;;;;5077935;28;20051;-79
2022/05/19 06:27:02;;;;;;;25.83;23.02;;;18.60;99.90;;;;;;5094783;28;20118;-81
2022/05/19 06:29:28;;;;;;;24.00;21.38;;;18.60;99.90;;;;;;5094652;28;20402;-80
2022/05/19 06:31:53;;;;;;;23.60;21.10;;;18.60;99.90;;;;;;5094975;28;20047;-79
2022/05/19 06:34:19;;;;;;;25.85;21.73;;;18.60;99.90;;;;;;5093974;28;20177;-81
2022/05/19 06:36:45;;;;;;;25.73;22.35;;;18.60;99.90;;;;;;5095517;28;20558;-82
2022/05/19 06:39:11;;;;;;;25.58;22.83;;;18.60;99.90;;;;;;5095363;28;20113;-81
2022/05/19 06:44:20;;;;;;;27.27;23.45;;;18.50;99.90;;;;;;5095687;28;20040;-83
2022/05/19 06:46:46;;;;;;;27.05;24.00;;;18.40;99.90;;;;;;5094179;28;20040;-80
2022/05/19 06:49:12;;;;;;;27.88;24.60;;;18.40;99.90;;;;;;5076960;28;20075;-80
2022/05/19 06:51:38;;;;;;;27.15;24.02;;;18.40;99.90;;;;;;5095133;28;20134;-80
2022/05/19 06:54:04;;;;;;;27.77;24.70;;;18.30;99.90;;;;;;5093706;28;20102;-79
2022/05/19 06:56:29;;;;;;;28.35;25.30;;;18.30;99.90;;;;;;5076733;28;20055;-80
2022/05/19 06:58:56;;;;;;;27.40;24.38;;;18.30;99.90;;;;;;5095018;28;20121;-80
2022/05/19 07:01:21;;;;;;;27.65;23.90;;;18.40;99.90;;;;;;5093484;28;20040;-80
2022/05/19 07:03:47;;;;;;;25.92;23.20;;;18.40;99.90;;;;;;5076906;28;20044;-79
2022/05/19 07:06:13;;;;;;;27.50;23.98;;;18.50;99.90;;;;;;5093033;28;20044;-80
2022/05/19 07:08:39;;;;;;;27.77;24.77;;;18.60;99.90;;;;;;5093765;28;20471;-80
2022/05/19 07:11:05;;;;;;;26.63;23.70;;;18.70;99.90;;;;;;5077060;28;20052;-80
2022/05/19 07:13:31;;;;;;;27.33;24.38;;;18.70;99.90;;;;;;5093166;28;20373;-80
2022/05/19 07:15:57;;;;;;;26.15;23.35;;;18.80;99.90;;;;;;5092895;28;20131;-79
2022/05/19 07:18:23;;;;;;;26.17;23.42;;;18.80;99.90;;;;;;5093422;28;20079;-80
2022/05/19 07:20:49;;;;;;;27.58;24.67;;;18.90;99.90;;;;;;5093629;28;20131;-81
2022/05/19 07:23:20;;;;;;;26.85;23.73;;;18.90;99.90;;;;;;5093316;28;20040;-80
2022/05/19 07:25:48;;;;;;;25.95;23.27;;;18.90;99.90;;;;;;5077948;28;20044;-84
2022/05/19 07:28:14;;;;;;;28.70;24.45;;;18.90;99.90;;;;;;5095176;28;20048;-84
2022/05/19 07:30:40;;;;;;;26.40;23.65;;;18.90;99.90;;;;;;5096703;28;20051;-84
2022/05/19 07:33:06;;;;;;;27.20;24.40;;;18.90;99.90;;;;;;5094150;28;20044;-84
2022/05/19 07:35:32;;;;;;;29.02;25.05;;;18.90;99.90;;;;;;5094683;28;20040;-80
2022/05/19 07:37:58;;;;;;;28.38;24.48;;;18.90;99.90;;;;;;5076798;28;20048;-82
2022/05/19 07:40:24;;;;;;;29.00;25.00;;;18.90;99.90;;;;;;5076236;28;20044;-81
2022/05/19 07:42:49;;;;;;;28.02;25.13;;;18.80;99.90;;;;;;5093472;28;20380;-81
2022/05/19 07:45:15;;;;;;;28.13;24.90;;;18.90;99.90;;;;;;5094271;28;20040;-86
2022/05/19 07:47:41;;;;;;;27.75;24.77;;;18.80;99.90;;;;;;5060662;28;20044;-81
2022/05/19 07:50:09;;;;;;;27.00;24.35;;;18.90;99.90;;;;;;5093546;28;20502;-82
2022/05/19 07:52:35;;;;;;;28.77;24.63;;;18.90;99.90;;;;;;5092663;28;20039;-81
2022/05/19 07:55:01;;;;;;;31.77;25.33;;;19.00;99.90;;;;;;5093319;28;20047;-83
2022/05/19 07:57:27;;;;;;;28.63;25.38;;;19.00;99.90;;;;;;5076356;28;20059;-82
2022/05/19 07:59:52;;;;;;;26.52;23.73;;;19.10;99.90;;;;;;5093158;28;20471;-82
2022/05/19 08:02:19;;;;;;;26.45;23.33;;;19.10;99.90;;;;;;5093704;28;20044;-82
2022/05/19 08:04:45;;;;;;;26.08;21.88;;;19.20;99.90;;;;;;5093990;28;20094;-82
2022/05/19 08:07:10;;;;;;;23.27;19.15;;;19.20;99.90;;;;;;5094105;28;20087;-82
2022/05/19 08:17:52;;;;;;;24.73;18.27;;;19.40;99.90;;;;;;5080350;28;20387;-90
2022/05/19 08:20:18;;;;;;;21.33;19.02;;;19.40;99.90;;;;;;5076581;28;20044;-81
2022/05/19 08:22:44;;;;;;;19.70;17.73;;;19.40;99.90;;;;;;5092298;28;20050;-81
2022/05/19 08:25:09;;;;;;;21.35;18.27;;;19.40;99.90;;;;;;5093135;28;20032;-81
2022/05/19 08:27:35;;;;;;;20.38;17.15;;;19.40;99.90;;;;;;5075395;28;20082;-80
2022/05/19 08:30:01;;;;;;;21.98;17.50;;;19.50;99.90;;;;;;5093558;28;20043;-81
2022/05/19 08:32:26;;;;;;;20.35;16.95;;;19.50;99.90;;;;;;5093251;28;20047;-80
2022/05/19 08:34:52;;;;;;;19.27;17.00;;;19.50;99.90;;;;;;5093401;28;20043;-80
2022/05/19 08:37:20;;;;;;;22.30;16.80;;;19.60;99.90;;;;;;5092510;28;20077;-81
2022/05/19 08:39:49;;;;;;;20.77;16.25;;;19.70;99.90;;;;;;5092639;28;20040;-79
2022/05/19 08:42:14;;;;;;;17.70;15.57;;;19.80;99.90;;;;;;5092571;28;20079;-80
2022/05/19 08:44:44;;;;;;;18.35;16.50;;;20.00;99.90;;;;;;5091784;28;20075;-81
2022/05/19 08:47:11;;;;;;;18.58;16.15;;;20.00;99.90;;;;;;5060228;28;20043;-79
2022/05/19 08:49:49;;;;;;;19.52;16.50;;;20.20;99.90;;;;;;5075361;28;20079;-82
2022/05/19 08:52:16;;;;;;;17.73;15.90;;;20.30;99.90;;;;;;5093525;28;20048;-80
2022/05/19 08:54:49;;;;;;;19.20;16.45;;;20.30;99.90;;;;;;5075055;28;20051;-80
2022/05/19 08:57:31;;;;;;;18.85;16.88;;;20.50;99.90;;;;;;5059334;28;20043;-80
2022/05/19 09:00:21;;;;;;;17.50;15.52;;;20.60;99.90;;;;;;5092241;28;20055;-81
2022/05/19 09:02:51;;;;;;;16.05;14.35;;;20.60;99.90;;;;;;5092816;28;20069;-82
2022/05/19 09:05:22;;;;;;;15.63;13.48;;;20.70;99.90;;;;;;5075015;28;20406;-80
2022/05/19 09:07:57;;;;;;;16.88;14.60;;;20.80;99.90;;;;;;5092741;28;20138;-80
2022/05/19 09:10:40;;;;;;;16.80;14.00;;;20.90;99.90;;;;;;5093274;28;20044;-80
2022/05/19 09:13:22;;;;;;;15.05;13.52;;;21.00;99.90;;;;;;5092202;28;20387;-81
2022/05/19 09:15:47;;;;;;;17.23;15.43;;;21.10;99.90;;;;;;5092717;28;20082;-80
2022/05/19 09:18:15;;;;;;;17.17;14.73;;;21.20;99.90;;;;;;5041788;28;20048;-80
2022/05/19 09:20:44;;;;;;;17.75;14.55;;;21.30;99.90;;;;;;5092786;28;20090;-79
2022/05/19 09:23:10;;;;;;;16.95;15.20;;;21.50;99.90;;;;;;5091838;28;20502;-79
2022/05/19 09:25:36;;;;;;;15.38;13.85;;;21.50;99.90;;;;;;5092433;28;20040;-80
2022/05/19 09:28:02;;;;;;;15.45;13.85;;;21.60;99.90;;;;;;5091844;28;20430;-80
2022/05/19 09:30:40;;;;;;;15.38;14.00;;;21.70;99.90;;;;;;5092669;28;20035;-80
2022/05/19 09:33:14;;;;;;;15.07;13.35;;;21.70;99.90;;;;;;5093169;28;20090;-80
2022/05/19 09:35:43;;;;;;;14.75;12.60;;;21.80;99.90;;;;;;5092478;28;20444;-79
2022/05/19 09:38:23;;;;;;;13.23;11.93;;;21.80;99.90;;;;;;5075103;28;20047;-80
2022/05/19 09:40:49;;;;;;;11.88;10.68;;;21.90;99.90;;;;;;5090509;28;20051;-79
2022/05/19 09:43:14;;;;;;;12.68;10.60;;;21.90;99.90;;;;;;5092714;28;20047;-79
2022/05/19 09:45:45;;;;;;;11.35;10.15;;;22.00;98.90;;;;;;5092270;28;20385;-80
2022/05/19 09:48:10;;;;;;;;;;;22.10;99.00;;;;;;5092029;28;20054;-80
2022/05/19 09:50:44;;;;;;;10.85;9.73;;;22.10;98.70;;;;;;5074649;28;19920;-80
2022/05/19 09:53:27;;;;;;;12.32;10.43;;;22.20;99.20;;;;;;5091490;28;20048;-80
2022/05/19 09:55:57;;;;;;;11.60;9.63;;;22.20;97.70;;;;;;5092163;28;20475;-80
2022/05/19 09:58:25;;;;;;;10.88;8.70;;;22.20;98.50;;;;;;5091602;28;20044;-80
2022/05/19 10:00:57;;;;;;;10.07;9.07;;;22.30;98.60;;;;;;5092257;28;20442;-80
2022/05/19 10:03:42;;;;;;;10.93;8.32;;;22.30;97.60;;;;;;5091400;28;20047;-80
2022/05/19 10:06:20;;;;;;;10.40;8.15;;;22.40;98.00;;;;;;5090690;28;20055;-80
2022/05/19 10:08:46;;;;;;;8.45;7.47;;;22.50;97.40;;;;;;5091069;28;20040;-80
2022/05/19 10:11:17;;;;;;;9.32;7.43;;;22.40;97.70;;;;;;5057886;28;20047;-80
2022/05/19 10:13:51;;;;;;;8.50;7.25;;;22.40;96.60;;;;;;5092082;28;20036;-80
2022/05/19 10:16:54;;;;;;;9.02;6.93;;;22.40;96.90;;;;;;5092711;28;20127;-80
2022/05/19 10:19:36;;;;;;;9.02;7.30;;;22.40;97.40;;;;;;5092571;28;20047;-80
2022/05/19 10:22:24;;;;;;;12.02;6.72;;;22.40;98.10;;;;;;5091365;28;20040;-80
2022/05/19 10:25:14;;;;;;;7.25;6.53;;;22.50;98.50;;;;;;5090789;28;20426;-79
2022/05/19 10:31:07;;;;;;;6.47;5.75;;;22.60;95.70;;;;;;5091537;28;20283;-80
2022/05/19 10:33:44;;;;;;;9.13;7.75;;;22.60;96.10;;;;;;5091185;28;20044;-80
2022/05/19 10:36:20;;;;;;;7.90;7.10;;;22.80;95.80;;;;;;5092191;28;20439;-80
2022/05/19 10:39:08;;;;;;;8.07;7.13;;;22.90;95.80;;;;;;5074325;28;20387;-79
2022/05/19 10:42:01;;;;;;;9.88;8.15;;;23.00;96.30;;;;;;5090867;28;20040;-79
2022/05/19 10:44:54;;;;;;;7.47;6.43;;;23.10;96.10;;;;;;5092040;28;20072;-81
2022/05/19 10:47:44;;;;;;;8.65;7.78;;;23.20;96.20;;;;;;5074383;28;20039;-80
2022/05/19 10:50:37;;;;;;;7.85;6.80;;;23.20;95.70;;;;;;5092229;28;20043;-80
2022/05/19 10:53:33;;;;;;;6.82;5.88;;;23.20;94.10;;;;;;5077669;28;20048;-80
2022/05/19 10:56:02;;;;;;;6.35;5.18;;;23.00;94.30;;;;;;5094284;28;20088;-80
2022/05/19 10:59:02;;;;;;;7.30;5.75;;;22.90;94.50;;;;;;5094854;28;20105;-79
2022/05/19 11:01:43;;;;;;;7.22;4.82;;;22.80;94.90;;;;;;5095738;28;20050;-80
2022/05/19 11:04:25;;;;;;;6.03;5.43;;;22.70;95.30;;;;;;5095513;28;20048;-80
2022/05/19 11:07:25;;;;;;;7.15;5.28;;;22.80;95.30;;;;;;5093841;28;20139;-80
2022/05/19 11:10:32;;;;;;;9.52;8.63;;;22.80;95.20;;;;;;5079763;28;20040;-80
2022/05/19 11:13:26;;;;;;;7.47;6.78;;;22.80;94.50;;;;;;5071430;28;20140;-80
2022/05/19 11:16:22;;;;;;;8.27;7.43;;;22.80;95.20;;;;;;5078453;28;20357;-80
2022/05/19 11:19:11;;;;;;;10.55;6.75;;;22.90;94.80;;;;;;5094851;28;20098;-81
2022/05/19 11:21:43;;;;;;;6.28;5.30;;;23.00;95.20;;;;;;5094958;28;20048;-80
2022/05/19 11:24:22;;;;;;;7.78;6.50;;;23.10;94.90;;;;;;5093726;28;20039;-80
2022/05/19 11:27:09;;;;;;;6.93;6.22;;;23.30;93.90;;;;;;5078226;28;20040;-80
2022/05/19 11:29:45;;;;;;;6.90;5.38;;;23.40;92.80;;;;;;5060510;28;20052;-81
2022/05/19 11:32:43;;;;;;;8.75;5.63;;;23.50;93.20;;;;;;5077212;28;20052;-80
2022/05/19 11:35:18;;;;;;;11.20;10.05;;;23.60;93.70;;;;;;5037604;28;20047;-81
2022/05/19 11:38:03;;;;;;;13.60;9.13;;;23.80;92.70;;;;;;5094906;28;20192;-80
2022/05/19 11:40:43;;;;;;;11.05;9.77;;;24.00;93.10;;;;;;5093779;28;20364;-80
2022/05/19 11:43:27;;;;;;;8.15;7.35;;;24.20;91.90;;;;;;5094386;28;20505;-80
2022/05/19 11:46:01;;;;;;;9.50;6.97;;;24.20;92.20;;;;;;5078323;28;20379;-80
2022/05/19 11:57:23;;;;;;;9.07;8.13;;;24.40;92.20;;;;;;5094190;28;20047;-80
2022/05/19 11:59:50;;;;;;;9.88;7.97;;;24.50;92.20;;;;;;5060021;28;20059;-85
2022/05/19 12:02:19;;;;;;;9.45;8.48;;;24.60;92.20;;;;;;5076109;28;20044;-80
2022/05/19 12:04:45;;;;;;;9.73;7.68;;;24.70;92.10;;;;;;5092794;28;20048;-80
2022/05/19 12:07:22;;;;;;;9.23;7.88;;;24.70;91.90;;;;;;5092276;28;20392;-80
2022/05/19 12:09:49;;;;;;;10.05;7.03;;;24.80;90.70;;;;;;5093226;28;20048;-80
2022/05/19 12:12:25;;;;;;;8.70;6.95;;;24.70;90.70;;;;;;5076335;28;20471;-80
2022/05/19 12:15:29;;;;;;;6.45;5.75;;;24.70;90.50;;;;;;5092881;28;20096;-85
2022/05/19 12:18:14;;;;;;;9.20;6.97;;;24.70;90.80;;;;;;5091533;28;20080;-80
2022/05/19 12:20:40;;;;;;;7.55;5.93;;;24.60;90.80;;;;;;5079035;28;20093;-80
2022/05/19 12:23:17;;;;;;;8.00;6.90;;;24.50;91.10;;;;;;5093638;28;20047;-80
2022/05/19 12:25:45;;;;;;;6.80;6.20;;;24.50;90.30;;;;;;5093864;28;20361;-80
2022/05/19 12:28:13;;;;;;;7.40;6.60;;;24.40;90.20;;;;;;5093800;28;20115;-80
2022/05/19 12:33:59;;;;;;;8.65;5.70;;;24.30;90.00;;;;;;5092819;28;20565;-80
2022/05/19 12:36:26;;;;;;;9.35;6.50;;;24.10;90.90;;;;;;5076102;28;20399;-79
2022/05/19 12:38:52;;;;;;;9.48;7.47;;;24.10;90.70;;;;;;5093888;28;20048;-80
2022/05/19 12:41:28;;;;;;;10.10;8.13;;;23.90;90.70;;;;;;5092322;28;20494;-79
2022/05/19 12:43:55;;;;;;;11.90;9.30;;;23.80;91.00;;;;;;5093393;28;20048;-84
2022/05/19 12:46:33;;;;;;;15.77;8.90;;;23.70;91.50;;;;;;5075421;28;20039;-79
2022/05/19 12:49:18;;;;;;;30.67;10.82;;;23.60;92.70;;;;;;5093055;28;20079;-80
2022/05/19 12:51:49;;;;;;;22.25;9.57;;;23.60;93.60;;;;;;5092478;28;20077;-79
2022/05/19 12:54:16;;;;;;;18.17;9.35;;;23.40;95.20;;;;;;5093132;28;20282;-80
2022/05/19 12:56:41;;;;;;;24.70;8.65;;;23.20;95.70;;;;;;5093260;28;20409;-81
2022/05/19 12:59:09;;;;;;;11.07;7.10;;;23.10;98.20;;;;;;5092780;28;20123;-81
2022/05/19 13:01:37;;;;;;;8.80;6.28;;;22.60;99.40;;;;;;5075602;28;20047;-81
2022/05/19 13:04:04;;;;;;;7.82;5.18;;;22.20;99.90;;;;;;5075179;28;20373;-81
2022/05/19 13:06:30;;;;;;;6.53;4.63;;;21.90;99.90;;;;;;5074761;28;20067;-80
2022/05/19 13:08:56;;;;;;;7.43;4.40;;;21.60;99.90;;;;;;5092187;28;20040;-80
2022/05/19 13:11:24;;;;;;;5.35;4.20;;;21.30;99.90;;;;;;5058089;28;20387;-80
2022/05/19 13:14:00;;;;;;;8.23;5.00;;;21.10;99.90;;;;;;5091861;28;20036;-80